Map

Track Data

SID SEASON NUMBER BASIN SUBBASIN NAME ISO_TIME NATURE LAT LON WMO_WIND WMO_PRES WMO_AGENCY TRACK_TYPE DIST2LAND LANDFALL IFLAG USA_AGENCY USA_ATCF_ID USA_LAT USA_LON USA_RECORD USA_STATUS USA_WIND USA_PRES USA_SSHS USA_R34_NE USA_R34_SE USA_R34_SW USA_R34_NW USA_R50_NE USA_R50_SE USA_R50_SW USA_R50_NW USA_R64_NE USA_R64_SE USA_R64_SW USA_R64_NW USA_POCI USA_ROCI USA_RMW USA_EYE TOKYO_LAT TOKYO_LON TOKYO_GRADE TOKYO_WIND TOKYO_PRES TOKYO_R50_DIR TOKYO_R50_LONG TOKYO_R50_SHORT TOKYO_R30_DIR TOKYO_R30_LONG TOKYO_R30_SHORT TOKYO_LAND CMA_LAT CMA_LON CMA_CAT CMA_WIND CMA_PRES HKO_LAT HKO_LON HKO_CAT HKO_WIND HKO_PRES NEWDELHI_LAT NEWDELHI_LON NEWDELHI_GRADE NEWDELHI_WIND NEWDELHI_PRES NEWDELHI_CI NEWDELHI_DP NEWDELHI_POCI REUNION_LAT REUNION_LON REUNION_TYPE REUNION_WIND REUNION_PRES REUNION_TNUM REUNION_CI REUNION_RMW REUNION_R34_NE REUNION_R34_SE REUNION_R34_SW REUNION_R34_NW REUNION_R50_NE REUNION_R50_SE REUNION_R50_SW REUNION_R50_NW REUNION_R64_NE REUNION_R64_SE REUNION_R64_SW REUNION_R64_NW BOM_LAT BOM_LON BOM_TYPE BOM_WIND BOM_PRES BOM_TNUM BOM_CI BOM_RMW BOM_R34_NE BOM_R34_SE BOM_R34_SW BOM_R34_NW BOM_R50_NE BOM_R50_SE BOM_R50_SW BOM_R50_NW BOM_R64_NE BOM_R64_SE BOM_R64_SW BOM_R64_NW BOM_ROCI BOM_POCI BOM_EYE BOM_POS_METHOD BOM_PRES_METHOD NADI_LAT NADI_LON NADI_CAT NADI_WIND NADI_PRES WELLINGTON_LAT WELLINGTON_LON WELLINGTON_WIND WELLINGTON_PRES DS824_LAT DS824_LON DS824_STAGE DS824_WIND DS824_PRES TD9636_LAT TD9636_LON TD9636_STAGE TD9636_WIND TD9636_PRES TD9635_LAT TD9635_LON TD9635_WIND TD9635_PRES TD9635_ROCI NEUMANN_LAT NEUMANN_LON NEUMANN_CLASS NEUMANN_WIND NEUMANN_PRES MLC_LAT MLC_LON MLC_CLASS MLC_WIND MLC_PRES USA_GUST BOM_GUST BOM_GUST_PER REUNION_GUST REUNION_GUST_PER USA_SEAHGT USA_SEARAD_NE USA_SEARAD_SE USA_SEARAD_SW USA_SEARAD_NW STORM_SPEED STORM_DIR
1982154N22273 1982 33 NA GM ALBERTO 1982-06-02 12:00:00 TS 21.7000 -87.1000 20 1005 hurdat_atl main 22 22 O_____________ hurdat_atl AL011982 21.7000 -87.1000 TD 20 1005 -1 7 47
1982154N22273 1982 33 NA GM ALBERTO 1982-06-02 15:00:00 TS 21.9551 -86.8077 main 59 59 P_____________ AL011982 21.9551 -86.8077 TD 22 1004 -1 8 48
1982154N22273 1982 33 NA GM ALBERTO 1982-06-02 18:00:00 TS 22.2000 -86.5000 25 1004 hurdat_atl main 93 93 O_____________ hurdat_atl AL011982 22.2000 -86.5000 TD 25 1004 -1 8 52
1982154N22273 1982 33 NA GM ALBERTO 1982-06-02 21:00:00 TS 22.4224 -86.1650 main 130 113 P_____________ AL011982 22.4224 -86.1650 TD 27 1003 -1 8 58
1982154N22273 1982 33 NA GM ALBERTO 1982-06-03 00:00:00 TS 22.6000 -85.8000 30 1003 hurdat_atl main 113 98 O_____________ hurdat_atl AL011982 22.6000 -85.8000 TD 30 1003 -1 8 68
1982154N22273 1982 33 NA GM ALBERTO 1982-06-03 03:00:00 TS 22.7000 -85.4072 main 98 83 P_____________ AL011982 22.7000 -85.4072 TD 35 1002 0 8 75
1982154N22273 1982 33 NA GM ALBERTO 1982-06-03 06:00:00 TS 22.8000 -85.0000 40 1001 hurdat_atl main 83 60 O_____________ hurdat_atl AL011982 22.8000 -85.0000 TS 40 1001 0 8 71
1982154N22273 1982 33 NA GM ALBERTO 1982-06-03 09:00:00 TS 22.9550 -84.5849 main 68 52 P_____________ AL011982 22.9550 -84.5849 TS 45 998 0 8 62
1982154N22273 1982 33 NA GM ALBERTO 1982-06-03 12:00:00 TS 23.2000 -84.2000 50 995 hurdat_atl main 59 59 O_____________ hurdat_atl AL011982 23.2000 -84.2000 TS 50 995 0 9 47
1982154N22273 1982 33 NA GM ALBERTO 1982-06-03 15:00:00 TS 23.5700 -83.8552 main 91 88 P_____________ AL011982 23.5700 -83.8552 TS 62 990 0 10 35
1982154N22273 1982 33 NA GM ALBERTO 1982-06-03 18:00:00 TS 24.0000 -83.6000 75 985 hurdat_atl main 124 124 O_____________ hurdat_atl AL011982 24.0000 -83.6000 HU 75 985 1 10 25
1982154N22273 1982 33 NA GM ALBERTO 1982-06-03 21:00:00 TS 24.4523 -83.4025 main 178 178 P_____________ AL011982 24.4523 -83.4025 HU 70 988 1 8 13
1982154N22273 1982 33 NA GM ALBERTO 1982-06-04 00:00:00 TS 24.8000 -83.4000 65 992 hurdat_atl main 210 210 O_____________ hurdat_atl AL011982 24.8000 -83.4000 HU 65 992 1 5 331
1982154N22273 1982 33 NA GM ALBERTO 1982-06-04 03:00:00 TS 24.9102 -83.6824 main 225 225 P_____________ AL011982 24.9102 -83.6824 HU 60 995 0 6 279
1982154N22273 1982 33 NA GM ALBERTO 1982-06-04 06:00:00 TS 24.9000 -84.1000 55 998 hurdat_atl main 234 234 O_____________ hurdat_atl AL011982 24.9000 -84.1000 TS 55 998 0 8 269
1982154N22273 1982 33 NA GM ALBERTO 1982-06-04 09:00:00 TS 24.9001 -84.5475 main 248 248 P_____________ AL011982 24.9001 -84.5475 TS 50 1000 0 6 270
1982154N22273 1982 33 NA GM ALBERTO 1982-06-04 12:00:00 TS 24.9000 -84.8000 45 1002 hurdat_atl main 258 251 O_____________ hurdat_atl AL011982 24.9000 -84.8000 TS 45 1002 0 0 0
1982154N22273 1982 33 NA GM ALBERTO 1982-06-04 15:00:00 TS 24.9428 -84.5601 main 251 248 P_____________ AL011982 24.9428 -84.5601 TS 42 1003 0 6 80
1982154N22273 1982 33 NA GM ALBERTO 1982-06-04 18:00:00 TS 25.0000 -84.2000 40 1005 hurdat_atl main 248 245 O_____________ hurdat_atl AL011982 25.0000 -84.2000 TS 40 1005 0 4 75
1982154N22273 1982 33 NA GM ALBERTO 1982-06-04 21:00:00 TS 25.0499 -84.1124 main 245 245 P_____________ AL011982 25.0499 -84.1124 TS 35 1006 0 1 40
1982154N22273 1982 33 NA GM ALBERTO 1982-06-05 00:00:00 TS 25.1000 -84.1000 30 1007 hurdat_atl main 255 255 O_____________ hurdat_atl AL011982 25.1000 -84.1000 TD 30 1007 -1 1 27
1982154N22273 1982 33 NA GM ALBERTO 1982-06-05 03:00:00 TS 25.1500 -84.0500 main 242 242 P_____________ AL011982 25.1500 -84.0500 TD 27 1007 -1 1 40
1982154N22273 1982 33 NA GM ALBERTO 1982-06-05 06:00:00 TS 25.2000 -84.0000 25 1008 hurdat_atl main 242 242 O_____________ hurdat_atl AL011982 25.2000 -84.0000 TD 25 1008 -1 1 37
1982154N22273 1982 33 NA GM ALBERTO 1982-06-05 09:00:00 TS 25.2500 -83.9650 main 242 228 P_____________ AL011982 25.2500 -83.9650 TD 25 1008 -1 1 40
1982154N22273 1982 33 NA GM ALBERTO 1982-06-05 12:00:00 TS 25.3000 -83.9000 25 1009 hurdat_atl main 228 219 O_____________ hurdat_atl AL011982 25.3000 -83.9000 TD 25 1009 -1 2 61
1982154N22273 1982 33 NA GM ALBERTO 1982-06-05 15:00:00 TS 25.3500 -83.7650 main 214 196 P_____________ AL011982 25.3500 -83.7650 TD 25 1009 -1 3 70
1982154N22273 1982 33 NA GM ALBERTO 1982-06-05 18:00:00 TS 25.4000 -83.6000 25 1010 hurdat_atl main 196 182 O_____________ hurdat_atl AL011982 25.4000 -83.6000 TD 25 1010 -1 3 69
1982154N22273 1982 33 NA GM ALBERTO 1982-06-05 21:00:00 TS 25.4575 -83.4500 main 182 164 P_____________ AL011982 25.4575 -83.4500 TD 25 1010 -1 3 70
1982154N22273 1982 33 NA GM ALBERTO 1982-06-06 00:00:00 TS 25.5000 -83.3000 25 1010 hurdat_atl main 164 155 O_____________ hurdat_atl AL011982 25.5000 -83.3000 TD 25 1010 -1 3 79
1982154N22273 1982 33 NA GM ALBERTO 1982-06-06 03:00:00 TS 25.5075 -83.1575 main 155 137 P_____________ AL011982 25.5075 -83.1575 TD 25 1010 -1 3 90
1982154N22273 1982 33 NA GM ALBERTO 1982-06-06 06:00:00 TS 25.5000 -83.0000 25 1010 hurdat_atl main 137 118 O_____________ hurdat_atl AL011982 25.5000 -83.0000 TD 25 1010 -1 3 92
1982154N22273 1982 33 NA GM ALBERTO 1982-06-06 09:00:00 TS 25.4976 -82.8100 main 118 100 P_____________ AL011982 25.4976 -82.8100 TD 22 1010 -1 4 90
1982154N22273 1982 33 NA GM ALBERTO 1982-06-06 12:00:00 TS 25.5000 -82.6000 20 1010 hurdat_atl main 100 O_____________ hurdat_atl AL011982 25.5000 -82.6000 TD 20 1010 -1 4 89

About IBTrACS Database

This database is a web-friendly format of International Best Track Archive for Climate Stewardship (IBTrACS), a global best track data archive curated by NOAA dating back to 1842.

Updated: 2021-12-06